No particular awareness of the weather is required.    There are no Weather-warnings


Meteo18 Weather Cam more information Meteo18 Weather Cam


Thunder radar more information blitzortung!


Rain radar more information rain snow radar


Visit our other weather sites:

Template documentation
and downloads

And another site



Weather Underground History page Text

Daily Summary for March 17, 2017 Units:  English    Metric   Both
« Previous Day
Next Day »
Daily Weekly Monthly Yearly Custom
  High: Low: Average:
Temperature: 52.3 °F 40.5 °F 47.5 °F
Dew Point: 47.7 °F 38.7 °F 43.9 °F
Humidity: 95 % 78 % 87 %
Wind Speed: 11 mph 0 mph 1.7 mph
Wind Gust: 15 mph - -
Wind:- - West
Pressure: 30.2 in 30.1 in -
Precipitation: 0 in    
Historical Graphs
 
 
Tabular Data for March 17, 2017
Time Temperature Dew Point Pressure Wind Wind Speed Wind Gust Humidity Rainfall Rate (Hourly)
00:02 51.1 °F 45.1 °F 30.1 in Calm   1 mph 80 % 0 in
00:07 51.4 °F 44.8 °F 30.1 in Calm   1 mph 78 % 0 in
00:12 51.1 °F 44.8 °F 30.1 in Calm   1 mph 79 % 0 in
00:22 50.2 °F 44.2 °F 30.1 in Calm     80 % 0 in
00:32 50 °F 44.4 °F 30.1 in Calm   1 mph 81 % 0 in
00:42 50.2 °F 44.6 °F 30.1 in Calm   1 mph 81 % 0 in
00:52 49.8 °F 44.6 °F 30.1 in Calm   1 mph 82 % 0 in
00:57 49.8 °F 44.6 °F 30.1 in Calm   1 mph 82 % 0 in
01:02 49.6 °F 44.4 °F 30.1 in Calm   1 mph 82 % 0 in
01:12 49.3 °F 44.1 °F 30.1 in Calm   1 mph 82 % 0 in
01:17 48.9 °F 44.1 °F 30.1 in Calm   1 mph 83 % 0 in
01:22 48.9 °F 44.1 °F 30.1 in Calm     83 % 0 in
01:27 48.7 °F 43.9 °F 30.1 in Calm     83 % 0 in
01:32 48.4 °F 43.5 °F 30.1 in Calm     83 % 0 in
01:42 48.4 °F 44.1 °F 30.1 in Calm     85 % 0 in
01:52 49.3 °F 44.6 °F 30.1 in Calm     84 % 0 in
01:57 48.9 °F 44.1 °F 30.1 in Calm     83 % 0 in
02:02 48.9 °F 44.1 °F 30.1 in Calm     83 % 0 in
02:07 48.7 °F 43.9 °F 30.1 in Calm     83 % 0 in
02:12 48.6 °F 43.7 °F 30.1 in Calm     83 % 0 in
02:17 47.8 °F 43.9 °F 30.1 in Calm   1 mph 86 % 0 in
02:22 48 °F 43.7 °F 30.1 in Calm   1 mph 85 % 0 in
02:27 48 °F 43.7 °F 30.1 in Calm   1 mph 85 % 0 in
02:32 48 °F 43.7 °F 30.1 in Calm   1 mph 85 % 0 in
02:37 47.8 °F 43.9 °F 30.1 in Calm   1 mph 86 % 0 in
02:42 48.4 °F 44.4 °F 30.1 in Calm   1 mph 86 % 0 in
02:47 48 °F 43.7 °F 30.1 in Calm   1 mph 85 % 0 in
02:52 48 °F 44.1 °F 30.1 in Calm   1 mph 86 % 0 in
02:57 48 °F 43.7 °F 30.1 in Calm   1 mph 85 % 0 in
03:02 47.7 °F 43.3 °F 30.1 in Calm   1 mph 85 % 0 in
03:07 47.1 °F 42.8 °F 30.1 in Calm     85 % 0 in
03:12 46.8 °F 43.2 °F 30.1 in Calm     87 % 0 in
03:17 46.8 °F 43.2 °F 30.1 in Calm     87 % 0 in
03:22 46.2 °F 42.6 °F 30.1 in Calm     87 % 0 in
03:27 45.7 °F 42.1 °F 30.1 in Calm     87 % 0 in
03:32 45 °F 41.5 °F 30.1 in Calm   1 mph 88 % 0 in
03:37 44.8 °F 41.7 °F 30.1 in Calm   1 mph 89 % 0 in
03:42 44.4 °F 41.7 °F 30.1 in Calm   1 mph 90 % 0 in
03:47 44.8 °F 42.3 °F 30.1 in Calm     91 % 0 in
03:52 45.1 °F 42.6 °F 30.1 in Calm     91 % 0 in
03:57 45.5 °F 43 °F 30.1 in Calm     91 % 0 in
04:02 46 °F 43.5 °F 30.1 in Calm   1 mph 91 % 0 in
04:07 45.9 °F 42.8 °F 30.1 in Calm   1 mph 89 % 0 in
04:12 45.1 °F 41.7 °F 30.1 in Calm   1 mph 88 % 0 in
04:17 44.6 °F 41.2 °F 30.1 in Calm     88 % 0 in
04:22 44.1 °F 40.8 °F 30.1 in Calm     88 % 0 in
04:27 43.5 °F 40.5 °F 30.1 in Calm     89 % 0 in
04:32 43.2 °F 40.5 °F 30.1 in Calm   1 mph 90 % 0 in
04:37 43.2 °F 40.6 °F 30.1 in Calm   1 mph 91 % 0 in
04:42 43.2 °F 41 °F 30.1 in South 1 mph 1 mph 92 % 0 in
04:47 43.3 °F 41.2 °F 30.1 in Calm   2 mph 92 % 0 in
04:52 43.3 °F 41.2 °F 30.1 in Calm   2 mph 92 % 0 in
05:02 43 °F 40.8 °F 30.1 in Calm   2 mph 92 % 0 in
05:12 42.4 °F 40.3 °F 30.1 in Calm   1 mph 92 % 0 in
05:17 42.3 °F 40.1 °F 30.1 in Calm   1 mph 92 % 0 in
05:22 42.1 °F 39.9 °F 30.1 in Calm   1 mph 92 % 0 in
05:32 41.9 °F 40.1 °F 30.1 in Calm   1 mph 93 % 0 in
05:37 42.3 °F 40.6 °F 30.1 in South 1 mph   94 % 0 in
05:42 42.3 °F 40.5 °F 30.1 in South 1 mph   93 % 0 in
05:47 42.1 °F 40.3 °F 30.1 in Calm   2 mph 93 % 0 in
05:52 42.1 °F 40.3 °F 30.1 in Calm   2 mph 93 % 0 in
06:02 41.5 °F 39.7 °F 30.1 in Calm   2 mph 93 % 0 in
06:12 41.5 °F 39.9 °F 30.1 in SW 1 mph 2 mph 94 % 0 in
06:17 41.5 °F 39.9 °F 30.1 in Calm   2 mph 94 % 0 in
06:22 41.2 °F 39.6 °F 30.1 in Calm   2 mph 94 % 0 in
06:27 40.8 °F 39.2 °F 30.1 in Calm   2 mph 94 % 0 in
06:32 40.8 °F 39.2 °F 30.1 in SSE 1 mph 2 mph 94 % 0 in
06:42 40.8 °F 39.2 °F 30.1 in Calm   2 mph 94 % 0 in
06:52 40.8 °F 39.6 °F 30.1 in Calm   1 mph 95 % 0 in
07:02 40.8 °F 39.6 °F 30.1 in Calm     95 % 0 in
07:12 41 °F 39.7 °F 30.1 in Calm     95 % 0 in
07:17 41.2 °F 39.9 °F 30.1 in Calm     95 % 0 in
07:22 41.5 °F 40.3 °F 30.1 in Calm     95 % 0 in
07:32 42.1 °F 40.8 °F 30.1 in WNW 2 mph   95 % 0 in
07:37 41.7 °F 40.5 °F 30.1 in Calm   2 mph 95 % 0 in
07:42 40.5 °F 38.7 °F 30.1 in North 2 mph 2 mph 93 % 0 in
07:52 41.4 °F 40.1 °F 30.2 in Calm   8 mph 95 % 0 in
07:57 42.1 °F 40.8 °F 30.1 in Calm   5 mph 95 % 0 in
08:02 42.6 °F 41.4 °F 30.2 in Calm   4 mph 95 % 0 in
08:07 42.8 °F 41.2 °F 30.2 in North 1 mph 3 mph 94 % 0 in
08:12 43.2 °F 41.5 °F 30.2 in Calm   3 mph 94 % 0 in
08:17 43.5 °F 41.9 °F 30.2 in Calm   2 mph 94 % 0 in
08:22 44.1 °F 42.4 °F 30.2 in North 1 mph 2 mph 94 % 0 in
08:32 45.9 °F 44.2 °F 30.2 in Calm   2 mph 94 % 0 in
08:42 46.8 °F 44.6 °F 30.2 in Calm   2 mph 92 % 0 in
08:52 47.8 °F 45.3 °F 30.2 in Calm     91 % 0 in
08:57 48.6 °F 46 °F 30.2 in Calm   3 mph 91 % 0 in
09:02 48.9 °F 45.9 °F 30.2 in Calm   3 mph 89 % 0 in
09:12 48.9 °F 46 °F 30.2 in North 3 mph 3 mph 90 % 0 in
09:17 48.7 °F 46.2 °F 30.2 in NNE 4 mph 5 mph 91 % 0 in
09:22 48.6 °F 46 °F 30.2 in NNW 7 mph 7 mph 91 % 0 in
09:32 48 °F 45.5 °F 30.2 in NNW 3 mph 7 mph 91 % 0 in
09:37 47.8 °F 45.3 °F 30.2 in NNW 7 mph 7 mph 91 % 0 in
09:42 47.1 °F 45 °F 30.2 in WNW 2 mph 7 mph 92 % 0 in
09:52 46 °F 44.1 °F 30.2 in NNW 6 mph 9 mph 93 % 0 in
10:02 45.3 °F 43.7 °F 30.2 in North 11 mph 14 mph 94 % 0 in
10:12 45.3 °F 44.1 °F 30.2 in North 8 mph 14 mph 95 % 0 in
10:17 45.5 °F 44.2 °F 30.2 in NW 5 mph 15 mph 95 % 0 in
10:22 45.7 °F 44.4 °F 30.2 in NW 6 mph 15 mph 95 % 0 in
10:32 46 °F 44.6 °F 30.2 in NNW 5 mph 10 mph 95 % 0 in
10:37 46 °F 44.4 °F 30.2 in NNE 4 mph 9 mph 94 % 0 in
10:42 46.2 °F 44.6 °F 30.2 in NNW 5 mph 9 mph 94 % 0 in
10:52 46.6 °F 45 °F 30.2 in WNW 2 mph 8 mph 94 % 0 in
10:57 46.8 °F 45.1 °F 30.2 in Calm   9 mph 94 % 0 in
11:02 46.8 °F 44.8 °F 30.2 in NNW 2 mph 9 mph 93 % 0 in
11:12 47.1 °F 45.1 °F 30.2 in NNW 3 mph 9 mph 93 % 0 in
11:17 47.1 °F 45.1 °F 30.2 in North 2 mph 5 mph 93 % 0 in
11:22 47.3 °F 45.3 °F 30.2 in North 4 mph 5 mph 93 % 0 in
11:27 47.3 °F 45.3 °F 30.2 in NNE 5 mph 5 mph 93 % 0 in
11:32 47.3 °F 45.3 °F 30.2 in Calm   6 mph 93 % 0 in
11:42 47.3 °F 45.3 °F 30.2 in NNW 4 mph 6 mph 93 % 0 in
11:47 47.3 °F 45.3 °F 30.2 in NNW 3 mph 8 mph 93 % 0 in
11:52 47.3 °F 45.3 °F 30.2 in NNW 4 mph 8 mph 93 % 0 in
11:57 47.3 °F 45.3 °F 30.2 in NNW 4 mph 6 mph 93 % 0 in
12:02 47.3 °F 45.3 °F 30.2 in NW 2 mph 6 mph 93 % 0 in
12:07 47.5 °F 45.5 °F 30.2 in NW 1 mph 5 mph 93 % 0 in
12:12 47.7 °F 45.7 °F 30.2 in Calm   5 mph 93 % 0 in
12:17 47.7 °F 45.7 °F 30.2 in WNW 3 mph 5 mph 93 % 0 in
12:22 47.7 °F 45.5 °F 30.2 in NW 1 mph 5 mph 92 % 0 in
12:32 47.8 °F 45.7 °F 30.2 in WNW 3 mph 7 mph 92 % 0 in
12:42 48.4 °F 46.2 °F 30.2 in NNE 4 mph 7 mph 92 % 0 in
12:47 48.6 °F 46.4 °F 30.2 in NNW 5 mph 7 mph 92 % 0 in
12:52 48.7 °F 46.2 °F 30.2 in NNW 4 mph 7 mph 91 % 0 in
12:57 48.7 °F 46.2 °F 30.2 in NW 4 mph 7 mph 91 % 0 in
13:02 48.9 °F 46.4 °F 30.2 in NW 4 mph 7 mph 91 % 0 in
13:12 49.6 °F 46.8 °F 30.2 in NNW 4 mph 6 mph 90 % 0 in
13:17 49.5 °F 46.6 °F 30.2 in NW 3 mph 6 mph 90 % 0 in
13:22 49.3 °F 46.4 °F 30.2 in West 4 mph 6 mph 90 % 0 in
13:27 49.3 °F 46.4 °F 30.2 in NW 4 mph 7 mph 90 % 0 in
13:32 49.1 °F 46.2 °F 30.2 in NW 1 mph 8 mph 90 % 0 in
13:37 49.3 °F 46.8 °F 30.2 in NNW 2 mph 8 mph 91 % 0 in
13:42 49.3 °F 46.8 °F 30.2 in NW 2 mph 6 mph 91 % 0 in
13:47 49.3 °F 46.4 °F 30.2 in NW 2 mph 6 mph 90 % 0 in
13:52 49.5 °F 46.6 °F 30.2 in NW 4 mph 6 mph 90 % 0 in
14:02 49.5 °F 46.6 °F 30.2 in WNW 8 mph 8 mph 90 % 0 in
14:07 49.6 °F 46.6 °F 30.2 in WNW 5 mph 9 mph 89 % 0 in
14:12 49.6 °F 46.6 °F 30.2 in NNW 2 mph 9 mph 89 % 0 in
14:17 49.6 °F 46.6 °F 30.2 in WNW 4 mph 9 mph 89 % 0 in
14:22 49.8 °F 46.8 °F 30.2 in NW 4 mph 7 mph 89 % 0 in
14:32 49.6 °F 46.2 °F 30.2 in WNW 2 mph 8 mph 88 % 0 in
14:42 50.4 °F 46.9 °F 30.2 in NNW 2 mph 6 mph 88 % 0 in
14:47 50.5 °F 46.8 °F 30.2 in WNW 2 mph 4 mph 87 % 0 in
14:52 51.1 °F 47.7 °F 30.2 in West 5 mph 5 mph 88 % 0 in
15:02 51.4 °F 46.8 °F 30.2 in WNW 2 mph 6 mph 84 % 0 in
15:07 51.8 °F 47.1 °F 30.2 in West 1 mph 6 mph 84 % 0 in
15:12 52 °F 47.3 °F 30.2 in North 1 mph 4 mph 84 % 0 in
15:17 52 °F 47.3 °F 30.2 in North 1 mph 4 mph 84 % 0 in
15:22 52 °F 46.9 °F 30.2 in Calm   4 mph 83 % 0 in
15:27 52.2 °F 47.5 °F 30.2 in WNW 1 mph 4 mph 84 % 0 in
15:32 52.3 °F 47.3 °F 30.2 in Calm   4 mph 83 % 0 in
15:37 52.3 °F 46.9 °F 30.2 in NW 2 mph 5 mph 82 % 0 in
15:42 52.3 °F 47.3 °F 30.2 in NNW 3 mph 5 mph 83 % 0 in
15:47 52 °F 46.9 °F 30.2 in NNW 2 mph 6 mph 83 % 0 in
15:57 52 °F 47.3 °F 30.2 in NW 5 mph 8 mph 84 % 0 in
16:02 51.8 °F 47.1 °F 30.2 in NW 1 mph 8 mph 84 % 0 in
16:07 51.8 °F 47.1 °F 30.2 in WNW 1 mph 7 mph 84 % 0 in
16:12 51.8 °F 47.1 °F 30.2 in NNE 3 mph 7 mph 84 % 0 in
16:17 52 °F 46.9 °F 30.2 in NNW 3 mph 7 mph 83 % 0 in
16:22 52 °F 47.3 °F 30.2 in North 2 mph 7 mph 84 % 0 in
16:27 52.2 °F 47.1 °F 30.2 in NNE 5 mph 7 mph 83 % 0 in
16:32 52.2 °F 47.1 °F 30.2 in NNW 2 mph 7 mph 83 % 0 in
16:37 52.3 °F 47.3 °F 30.2 in NW 1 mph 7 mph 83 % 0 in
16:42 52.3 °F 46.9 °F 30.2 in NNW 1 mph 7 mph 82 % 0 in
16:47 52.3 °F 47.3 °F 30.2 in NE 2 mph 6 mph 83 % 0 in
16:52 52.2 °F 46.8 °F 30.2 in WNW 3 mph 8 mph 82 % 0 in
16:57 52.2 °F 46.8 °F 30.2 in NNW 4 mph 8 mph 82 % 0 in
17:02 52.2 °F 46.8 °F 30.2 in NW 1 mph 8 mph 82 % 0 in
17:07 52.2 °F 46.6 °F 30.2 in NW 3 mph 7 mph 81 % 0 in
17:12 52 °F 46.4 °F 30.2 in NNW 5 mph 9 mph 81 % 0 in
17:17 52 °F 46 °F 30.2 in NNE 5 mph 9 mph 80 % 0 in
17:22 52 °F 46.4 °F 30.2 in NW 2 mph 9 mph 81 % 0 in
17:27 52 °F 46 °F 30.2 in NNW 3 mph 9 mph 80 % 0 in
17:32 52 °F 46 °F 30.2 in NW 4 mph 8 mph 80 % 0 in
17:37 52 °F 45.7 °F 30.2 in NW 6 mph 8 mph 79 % 0 in
17:42 52 °F 45.7 °F 30.2 in NW 5 mph 7 mph 79 % 0 in
17:47 52 °F 46 °F 30.2 in North 3 mph 7 mph 80 % 0 in
17:52 52 °F 46 °F 30.2 in NNW 3 mph 7 mph 80 % 0 in
17:57 51.6 °F 45.7 °F 30.2 in North 7 mph 7 mph 80 % 0 in
18:02 51.3 °F 45.7 °F 30.2 in North 6 mph 11 mph 81 % 0 in
18:07 51.1 °F 45.5 °F 30.2 in North 5 mph 11 mph 81 % 0 in
18:12 50.7 °F 45.5 °F 30.2 in NNW 3 mph 11 mph 82 % 0 in
18:17 50.5 °F 45.3 °F 30.2 in NNW 2 mph 11 mph 82 % 0 in
18:22 50.5 °F 45.3 °F 30.2 in NNW 1 mph 10 mph 82 % 0 in
18:32 50.4 °F 45.1 °F 30.2 in WNW 2 mph 8 mph 82 % 0 in
18:42 50.2 °F 45 °F 30.2 in West 3 mph 6 mph 82 % 0 in
18:47 49.8 °F 44.2 °F 30.2 in NNE 4 mph 6 mph 81 % 0 in
18:52 49.6 °F 44.1 °F 30.2 in WNW 1 mph 5 mph 81 % 0 in
18:57 49.5 °F 43.9 °F 30.2 in NNW 1 mph 5 mph 81 % 0 in
19:02 49.3 °F 44.1 °F 30.2 in Calm   5 mph 82 % 0 in
19:07 48.9 °F 43.7 °F 30.2 in NW 1 mph 3 mph 82 % 0 in
19:12 48.7 °F 43.5 °F 30.2 in WNW 1 mph 2 mph 82 % 0 in
19:17 48.4 °F 43.5 °F 30.2 in Calm   2 mph 83 % 0 in
19:22 48 °F 43.3 °F 30.2 in Calm   2 mph 84 % 0 in
19:27 47.8 °F 43.2 °F 30.2 in Calm   1 mph 84 % 0 in
19:32 47.7 °F 43 °F 30.2 in Calm     84 % 0 in
19:37 46.9 °F 42.4 °F 30.2 in Calm   1 mph 84 % 0 in
19:42 46.8 °F 42.8 °F 30.2 in Calm   1 mph 86 % 0 in
19:52 46.8 °F 42.8 °F 30.2 in Calm   1 mph 86 % 0 in
19:57 46.6 °F 42.6 °F 30.2 in Calm   1 mph 86 % 0 in
20:02 46.6 °F 43 °F 30.2 in Calm   1 mph 87 % 0 in
20:12 46.4 °F 43 °F 30.2 in Calm     88 % 0 in
20:17 46.2 °F 42.8 °F 30.2 in Calm     88 % 0 in
20:22 46.6 °F 43.2 °F 30.2 in Calm     88 % 0 in
20:27 45.9 °F 42.3 °F 30.2 in Calm     87 % 0 in
20:32 45.3 °F 42.3 °F 30.2 in Calm     89 % 0 in
20:37 45.3 °F 42.6 °F 30.2 in Calm     90 % 0 in
20:42 45.5 °F 42.8 °F 30.2 in Calm     90 % 0 in
20:47 45.7 °F 43 °F 30.2 in West 1 mph 3 mph 90 % 0 in
20:52 45.9 °F 42.8 °F 30.2 in West 1 mph 3 mph 89 % 0 in
20:57 45.7 °F 42.6 °F 30.2 in Calm   3 mph 89 % 0 in
21:02 45.7 °F 43 °F 30.2 in WSW 1 mph 2 mph 90 % 0 in
21:07 45.7 °F 43 °F 30.2 in WNW 2 mph 2 mph 90 % 0 in
21:12 46.2 °F 43.5 °F 30.2 in WNW 2 mph 2 mph 90 % 0 in
21:17 46.6 °F 43.5 °F 30.2 in WNW 3 mph 3 mph 89 % 0 in
21:22 46.8 °F 43.3 °F 30.2 in West 2 mph 3 mph 88 % 0 in
21:27 47.1 °F 43.7 °F 30.2 in WNW 2 mph 3 mph 88 % 0 in
21:32 47.3 °F 43.7 °F 30.2 in WNW 2 mph 3 mph 87 % 0 in
21:42 47.5 °F 43.5 °F 30.2 in WSW 1 mph 3 mph 86 % 0 in
21:47 47.5 °F 43.5 °F 30.2 in West 2 mph 2 mph 86 % 0 in
21:57 47.7 °F 43.3 °F 30.2 in West 3 mph 3 mph 85 % 0 in
22:02 47.8 °F 43.2 °F 30.2 in West 2 mph 7 mph 84 % 0 in
22:07 47.8 °F 43 °F 30.2 in WNW 7 mph 7 mph 83 % 0 in
22:12 47.8 °F 42.6 °F 30.2 in West 3 mph 8 mph 82 % 0 in
22:17 47.8 °F 42.6 °F 30.2 in WSW 4 mph 8 mph 82 % 0 in
22:27 47.5 °F 42.3 °F 30.2 in West 2 mph 7 mph 82 % 0 in
22:32 47.5 °F 42.3 °F 30.2 in West 2 mph 6 mph 82 % 0 in
22:42 46.9 °F 41.7 °F 30.2 in West 2 mph 5 mph 82 % 0 in
22:47 46.8 °F 41.5 °F 30.2 in West 1 mph 5 mph 82 % 0 in
22:52 46.6 °F 41.4 °F 30.2 in WSW 1 mph 4 mph 82 % 0 in
22:57 46.6 °F 41.4 °F 30.2 in SW 1 mph 3 mph 82 % 0 in
23:02 46.6 °F 41.4 °F 30.2 in SW 2 mph 3 mph 82 % 0 in
23:07 46.6 °F 41.4 °F 30.2 in SW 1 mph 5 mph 82 % 0 in
23:12 46.4 °F 41.2 °F 30.2 in WSW 3 mph 4 mph 82 % 0 in
23:17 46.4 °F 40.8 °F 30.2 in SW 2 mph 4 mph 81 % 0 in
23:22 46.2 °F 41 °F 30.2 in WSW 1 mph 4 mph 82 % 0 in
23:27 46 °F 40.8 °F 30.2 in West 2 mph 4 mph 82 % 0 in
23:32 45.9 °F 40.6 °F 30.2 in SW 1 mph 4 mph 82 % 0 in
23:37 45.9 °F 41 °F 30.2 in Calm   4 mph 83 % 0 in
23:42 45.7 °F 40.8 °F 30.2 in Calm   3 mph 83 % 0 in
23:47 45.5 °F 40.6 °F 30.2 in West 2 mph 5 mph 83 % 0 in
23:52 45.3 °F 40.5 °F 30.2 in WSW 4 mph 5 mph 83 % 0 in
23:57 45.3 °F 40.8 °F 30.2 in WSW 4 mph 5 mph 84 % 0 in
Meteo18
Compliments of Weather Underground - 4 mb

Script developed by  Jim McMurry - jmcmurry@mwt.net Adapted for the template by  Wim van der Kuil - Leuven-Template.eu

You find our weather info also at:

European Weather Network

Weather Underground

Equipment we use:

Weather-station
Davis Vue

Weather-program
Meteohub

Weather-server
Raspberry PI 2 B+

Provider
1 and 1

Davis Vue

Meteohub

Raspberry PI 2 B+

1 and 1